Time;durP1;ratioP1;P1;durP2;ratioP2;P2;SDS_P1;SDS_P2;PMS_P1;PMS_P2;Temp;Humidity;BMP_temperature;BMP_pressure;BME280_temperature;BME280_humidity;BME280_pressure;Samples;Min_cycle;Max_cycle;Signal;HPM_P1;HPM_P2
2022/10/21 00:01:38;;;;;;;;;;;12.10;99.90;;;;;;5011700;28;19924;-88
2022/10/21 00:04:04;;;;;;;;;;;12.10;99.90;;;;;;5033294;28;20571;-85
2022/10/21 00:06:29;;;;;;;;;;;12.00;99.90;;;;;;5036878;28;20582;-87
2022/10/21 00:08:55;;;;;;;;;;;12.00;99.90;;;;;;5036585;28;19947;-88
2022/10/21 00:11:20;;;;;;;;;;;11.90;99.90;;;;;;5036591;28;19920;-87
2022/10/21 00:13:46;;;;;;;;;;;12.00;99.90;;;;;;5018701;28;19913;-86
2022/10/21 00:16:13;;;;;;;;;;;12.00;99.90;;;;;;5036625;28;20288;-87
2022/10/21 00:18:39;;;;;;;;;;;12.00;99.90;;;;;;5018609;28;19922;-89
2022/10/21 00:21:09;;;;;;;;;;;12.00;99.90;;;;;;5036205;28;19909;-88
2022/10/21 00:23:35;;;;;;;;;;;12.00;99.90;;;;;;5028061;28;19914;-87
2022/10/21 00:26:01;;;;;;;;;;;11.90;99.90;;;;;;5032513;28;20281;-87
2022/10/21 00:28:27;;;;;;;;;;;12.00;99.90;;;;;;5036086;28;19949;-90
2022/10/21 00:30:53;;;;;;;;;;;11.90;99.90;;;;;;5035759;28;19959;-88
2022/10/21 00:33:18;;;;;;;;;;;11.90;99.90;;;;;;5036311;28;19913;-88
2022/10/21 00:35:49;;;;;;;;;;;11.90;99.90;;;;;;5030670;28;20319;-89
2022/10/21 00:38:15;;;;;;;;;;;11.90;99.90;;;;;;5036291;28;19917;-88
2022/10/21 00:40:40;;;;;;;;;;;11.80;99.90;;;;;;5015415;28;19913;-87
2022/10/21 00:43:08;;;;;;;;;;;11.80;99.90;;;;;;5026363;28;19940;-88
2022/10/21 00:45:33;;;;;;;;;;;11.70;99.90;;;;;;5030365;28;19921;-89
2022/10/21 00:48:01;;;;;;;;;;;11.80;99.90;;;;;;5036164;28;19920;-89
2022/10/21 00:50:36;;;;;;;;;;;11.70;99.90;;;;;;5034645;28;19935;-89
2022/10/21 00:53:03;;;;;;;;;;;11.60;99.90;;;;;;5035936;28;19920;-88
2022/10/21 00:55:31;;;;;;;;;;;11.70;99.90;;;;;;5035763;28;19924;-87
2022/10/21 00:57:56;;;;;;;;;;;11.70;99.90;;;;;;5034399;28;20103;-89
2022/10/21 01:00:22;;;;;;;;;;;11.80;99.90;;;;;;5035104;28;20016;-88
2022/10/21 01:02:47;;;;;;;;;;;11.80;99.90;;;;;;5033971;28;19914;-90
2022/10/21 01:05:13;;;;;;;;;;;11.80;99.90;;;;;;5020058;28;20307;-86
2022/10/21 01:07:48;;;;;;;;;;;11.90;99.90;;;;;;5035686;28;19955;-87
2022/10/21 01:10:14;;;;;;;;;;;11.80;99.90;;;;;;5023396;28;19921;-89
2022/10/21 01:12:59;;;;;;;;;;;11.90;99.90;;;;;;5034343;28;19964;-87
2022/10/21 01:15:33;;;;;;;;;;;11.80;99.90;;;;;;5035455;28;19913;-87
2022/10/21 01:17:58;;;;;;;;;;;11.80;99.90;;;;;;5009982;28;19918;-88
2022/10/21 01:20:24;;;;;;;;;;;11.80;99.90;;;;;;5015385;28;19976;-89
2022/10/21 01:22:53;;;;;;;;;;;11.80;99.90;;;;;;5009027;28;19971;-87
2022/10/21 01:25:21;;;;;;;;;;;11.70;99.90;;;;;;5012329;28;19917;-89
2022/10/21 01:28:25;;;;;;;;;;;11.60;99.90;;;;;;5012935;28;19914;-89
2022/10/21 01:30:54;;;;;;;;;;;11.60;99.90;;;;;;4954485;29;19934;-89
2022/10/21 01:33:25;;;;;;;;;;;11.60;99.90;;;;;;4955067;29;19979;-87
2022/10/21 01:36:09;;;;;;;;;;;11.70;99.90;;;;;;4980715;28;19925;-86
2022/10/21 01:38:49;;;;;;;;;;;11.80;99.90;;;;;;5010034;28;19925;-89
2022/10/21 01:41:23;;;;;;;;;;;11.90;99.90;;;;;;5003229;28;19914;-86
2022/10/21 01:44:18;;;;;;;;;;;11.90;99.90;;;;;;5014206;28;19914;-85
2022/10/21 01:46:47;;;;;;;;;;;11.90;99.90;;;;;;4989126;28;19914;-88
2022/10/21 01:49:17;;;;;;;;;;;11.90;99.90;;;;;;5029212;28;19913;-91
2022/10/21 01:51:42;;;;;;;;;;;11.90;99.90;;;;;;4998683;28;19940;-89
2022/10/21 01:54:15;;;;;;;;;;;11.90;99.90;;;;;;5014933;28;19909;-88
2022/10/21 01:56:41;;;;;;;;;;;11.90;99.90;;;;;;5015232;28;19913;-88
2022/10/21 01:59:08;;;;;;;;;;;11.90;99.90;;;;;;5015074;28;19914;-89
2022/10/21 02:01:34;;;;;;;;;;;11.80;99.90;;;;;;5013365;28;19965;-90
2022/10/21 02:04:01;;;;;;;;;;;11.80;99.90;;;;;;5014912;28;19940;-89
2022/10/21 02:06:27;;;;;;;;;;;11.80;99.90;;;;;;5003836;28;19914;-87
2022/10/21 02:08:52;;;;;;;;;;;11.70;99.90;;;;;;5011042;28;19914;-90
2022/10/21 02:11:18;;;;;;;;;;;11.70;99.90;;;;;;5010385;28;19910;-89
2022/10/21 02:13:51;;;;;;;;;;;11.70;99.90;;;;;;5009045;28;20312;-86
2022/10/21 02:16:20;;;;;;;;;;;11.60;99.90;;;;;;5014384;28;19917;-87
2022/10/21 02:18:45;;;;;;;;;;;11.70;99.90;;;;;;5013304;28;19928;-86
2022/10/21 02:21:14;;;;;;;;;;;11.60;99.90;;;;;;5033863;28;19913;-89
2022/10/21 02:23:43;;;;;;;;;;;11.70;99.90;;;;;;5032401;28;20354;-87
2022/10/21 02:26:09;;;;;;;;;;;11.80;99.90;;;;;;5029869;28;19949;-88
2022/10/21 02:28:34;;;;;;;;;;;11.80;99.90;;;;;;5016248;28;19916;-87
2022/10/21 02:31:08;;;;;;;;;;;11.80;99.90;;;;;;5033725;28;19921;-85
2022/10/21 02:33:48;;;;;;;;;;;11.80;99.90;;;;;;5016261;28;19980;-86
2022/10/21 02:36:36;;;;;;;;;;;11.70;99.90;;;;;;5033981;28;19963;-89
2022/10/21 02:39:06;;;;;;;;;;;11.90;99.90;;;;;;5030647;28;19940;-87
2022/10/21 02:41:32;;;;;;;;;;;11.80;99.90;;;;;;5011755;28;20012;-88
2022/10/21 02:43:59;;;;;;;;;;;11.80;99.90;;;;;;5025742;28;20011;-88
2022/10/21 02:46:25;;;;;;;;;;;11.80;99.90;;;;;;5014820;28;19917;-89
2022/10/21 02:48:52;;;;;;;;;;;11.70;99.90;;;;;;5010570;28;19989;-86
2022/10/21 02:51:17;;;;;;;;;;;11.80;99.90;;;;;;5030641;28;20004;-87
2022/10/21 02:53:43;;;;;;;;;;;11.70;99.90;;;;;;5025357;28;20003;-89
2022/10/21 02:56:08;;;;;;;;;;;11.60;99.90;;;;;;5033391;28;19909;-88
2022/10/21 02:58:34;;;;;;;;;;;11.60;99.90;;;;;;5022080;28;19921;-87
2022/10/21 03:01:00;;;;;;;;;;;11.70;99.90;;;;;;5032925;28;19924;-90
2022/10/21 03:03:25;;;;;;;;;;;11.80;99.90;;;;;;5033290;28;19909;-87
2022/10/21 03:05:51;;;;;;;;;;;11.80;99.90;;;;;;5019088;28;19917;-89
2022/10/21 03:08:16;;;;;;;;;;;11.90;99.90;;;;;;5022906;28;19986;-89
2022/10/21 03:10:42;;;;;;;;;;;12.00;99.90;;;;;;5011620;28;19918;-88
2022/10/21 03:13:07;;;;;;;;;;;11.90;99.90;;;;;;5031803;28;19914;-88
2022/10/21 03:15:33;;;;;;;;;;;11.80;99.90;;;;;;5033273;28;19913;-87
2022/10/21 03:17:58;;;;;;;;;;;11.90;99.90;;;;;;5015004;28;19917;-87
2022/10/21 03:20:24;;;;;;;;;;;11.80;99.90;;;;;;5031710;28;19913;-87
2022/10/21 03:22:49;;;;;;;;;;;11.90;99.90;;;;;;5033224;28;19920;-88
2022/10/21 03:25:15;;;;;;;;;;;11.90;99.90;;;;;;5027629;28;19928;-87
2022/10/21 03:27:41;;;;;;;;;;;12.00;99.90;;;;;;5032842;28;19966;-86
2022/10/21 03:30:06;;;;;;;;;;;11.90;99.90;;;;;;5013523;28;19914;-86
2022/10/21 03:32:32;;;;;;;;;;;11.80;99.90;;;;;;5014455;28;20257;-90
2022/10/21 03:34:57;;;;;;;;;;;11.90;99.90;;;;;;5014906;28;20249;-87
2022/10/21 03:37:23;;;;;;;;;;;11.80;99.90;;;;;;5031084;28;19917;-87
2022/10/21 03:39:48;;;;;;;;;;;11.90;99.90;;;;;;5031464;28;20293;-87
2022/10/21 03:42:14;;;;;;;;;;;11.90;99.90;;;;;;5000793;28;19917;-87
2022/10/21 03:44:40;;;;;;;;;;;11.80;99.90;;;;;;5015033;28;20339;-90
2022/10/21 03:47:05;;;;;;;;;;;11.90;99.90;;;;;;5032905;28;20021;-87
2022/10/21 03:49:31;;;;;;;;;;;11.80;99.90;;;;;;5032754;28;19924;-90
2022/10/21 03:51:57;;;;;;;;;;;12.00;99.90;;;;;;5014820;28;20269;-88
2022/10/21 03:54:22;;;;;;;;;;;11.80;99.90;;;;;;5032307;28;19909;-88
2022/10/21 03:56:48;;;;;;;;;;;11.90;99.90;;;;;;5015100;28;19913;-89
2022/10/21 03:59:13;;;;;;;;;;;12.00;99.90;;;;;;5030354;28;19909;-89
2022/10/21 04:01:39;;;;;;;;;;;11.90;99.90;;;;;;5031935;28;20008;-87
2022/10/21 04:04:05;;;;;;;;;;;11.90;99.90;;;;;;5028076;28;19917;-88
2022/10/21 04:06:30;;;;;;;;;;;12.00;99.90;;;;;;5032379;28;19917;-87
2022/10/21 04:08:56;;;;;;;;;;;12.00;99.90;;;;;;5032277;28;20011;-89
2022/10/21 04:11:21;;;;;;;;;;;12.00;99.90;;;;;;5030095;28;19921;-87
2022/10/21 04:13:47;;;;;;;;;;;12.00;99.90;;;;;;5034387;28;19960;-88
2022/10/21 04:16:13;;;;;;;;;;;12.00;99.90;;;;;;5014636;28;20059;-87
2022/10/21 04:18:39;;;;;;;;;;;12.00;99.90;;;;;;5032330;28;20394;-87
2022/10/21 04:21:05;;;;;;;;;;;12.00;99.90;;;;;;5032695;28;20008;-88
2022/10/21 04:23:30;;;;;;;;;;;12.00;99.90;;;;;;5014516;28;19917;-88
2022/10/21 04:25:56;;;;;;;;;;;12.00;99.90;;;;;;5014819;28;20380;-89
2022/10/21 04:28:21;;;;;;;;;;;12.00;99.90;;;;;;5032196;28;20329;-87
2022/10/21 04:30:48;;;;;;;;;;;12.00;99.90;;;;;;5016959;28;19917;-89
2022/10/21 04:33:14;;;;;;;;;;;12.00;99.90;;;;;;5022193;28;19913;-88
2022/10/21 04:35:39;;;;;;;;;;;12.00;99.90;;;;;;5031077;28;19919;-85
2022/10/21 04:38:05;;;;;;;;;;;12.10;99.90;;;;;;5032075;28;19959;-88
2022/10/21 04:40:30;;;;;;;;;;;12.10;99.90;;;;;;5030886;28;19961;-87
2022/10/21 04:42:56;;;;;;;;;;;12.20;99.90;;;;;;5030605;28;19920;-85
2022/10/21 04:45:21;;;;;;;;;;;12.20;99.90;;;;;;5029531;28;19928;-87
2022/10/21 04:47:47;;;;;;;;;;;12.20;99.90;;;;;;5019163;28;19924;-88
2022/10/21 04:50:12;;;;;;;;;;;12.20;99.90;;;;;;5033615;28;19924;-88
2022/10/21 04:52:38;;;;;;;;;;;12.10;99.90;;;;;;5014298;28;19939;-87
2022/10/21 04:55:04;;;;;;;;;;;12.10;99.90;;;;;;5016825;28;19921;-87
2022/10/21 04:57:29;;;;;;;;;;;12.20;99.90;;;;;;5035283;28;20032;-87
2022/10/21 04:59:55;;;;;;;;;;;12.10;99.90;;;;;;5034244;28;20380;-88
2022/10/21 05:02:20;;;;;;;;;;;12.10;99.90;;;;;;5016037;28;20011;-88
2022/10/21 05:04:46;;;;;;;;;;;12.20;99.90;;;;;;5016685;28;19921;-87
2022/10/21 05:07:11;;;;;;;;;;;12.20;99.90;;;;;;5013638;28;19917;-87
2022/10/21 05:09:37;;;;;;;;;;;12.20;99.90;;;;;;5033316;28;19913;-87
2022/10/21 05:12:03;;;;;;;;;;;12.10;99.90;;;;;;5034385;28;19921;-87
2022/10/21 05:14:28;;;;;;;;;;;12.20;99.90;;;;;;5033090;28;20368;-88
2022/10/21 05:16:54;;;;;;;;;;;12.20;99.90;;;;;;5015717;28;19917;-86
2022/10/21 05:19:19;;;;;;;;;;;12.30;99.90;;;;;;5014987;28;19971;-86
2022/10/21 05:21:47;;;;;;;;;;;12.30;99.90;;;;;;5033037;28;19922;-86
2022/10/21 05:24:14;;;;;;;;;;;12.20;99.90;;;;;;5014240;28;20373;-85
2022/10/21 05:26:39;;;;;;;;;;;12.20;99.90;;;;;;5029239;28;19919;-87
2022/10/21 05:29:05;;;;;;;;;;;12.10;99.90;;;;;;5016808;28;19925;-87
2022/10/21 05:31:30;;;;;;;;;;;12.10;99.90;;;;;;5027939;28;20521;-85
2022/10/21 05:33:56;;;;;;;;;;;12.00;99.90;;;;;;5015320;28;19924;-86
2022/10/21 05:36:21;;;;;;;;;;;12.00;99.90;;;;;;5032968;28;19916;-85
2022/10/21 05:38:47;;;;;;;;;;;12.10;99.90;;;;;;5029140;28;19917;-88
2022/10/21 05:41:13;;;;;;;;;;;12.10;99.90;;;;;;5020410;28;19918;-88
2022/10/21 05:43:38;;;;;;;;;;;12.00;99.90;;;;;;5029373;28;19918;-88
2022/10/21 05:46:04;;;;;;;;;;;12.00;99.90;;;;;;5016911;28;20253;-86
2022/10/21 05:48:29;;;;;;;;;;;12.00;99.90;;;;;;5000894;28;20311;-87
2022/10/21 05:50:55;;;;;;;;;;;12.10;99.90;;;;;;5032867;28;19921;-87
2022/10/21 05:53:22;;;;;;;;;;;12.00;99.90;;;;;;5033243;28;19917;-87
2022/10/21 05:55:58;;;;;;;;;;;11.90;99.90;;;;;;5032189;28;19953;-84
2022/10/21 05:58:24;;;;;;;;;;;12.00;99.90;;;;;;5028499;28;19918;-87
2022/10/21 06:00:53;;;;;;;;;;;12.00;99.90;;;;;;5028612;28;19974;-85
2022/10/21 06:03:23;;;;;;;;;;;12.00;99.90;;;;;;5033271;28;19913;-85
2022/10/21 06:05:49;;;;;;;;;;;11.90;99.90;;;;;;5014632;28;19921;-86
2022/10/21 06:08:14;;;;;;;;;;;11.80;99.90;;;;;;5024837;28;19917;-86
2022/10/21 06:10:40;;;;;;;;;;;11.80;99.90;;;;;;5033858;28;19917;-87
2022/10/21 06:13:05;;;;;;;;;;;11.80;99.90;;;;;;5033375;28;19921;-87
2022/10/21 06:15:31;;;;;;;;;;;11.90;99.90;;;;;;5008211;28;20727;-85
2022/10/21 06:17:56;;;;;;;;;;;12.00;99.90;;;;;;5029625;28;19991;-87
2022/10/21 06:20:22;;;;;;;;;;;12.00;99.90;;;;;;5004689;28;20016;-87
2022/10/21 06:22:47;;;;;;;;;;;11.90;99.90;;;;;;5031877;28;19995;-87
2022/10/21 06:25:13;;;;;;;;;;;12.00;99.90;;;;;;5008139;28;20369;-87
2022/10/21 06:27:38;;;;;;;;;;;12.00;99.90;;;;;;5031907;28;19916;-87
2022/10/21 06:30:04;;;;;;;;;;;12.00;99.90;;;;;;5031726;28;19917;-86
2022/10/21 06:32:30;;;;;;;;;;;12.00;99.90;;;;;;5028429;28;20326;-87
2022/10/21 06:34:55;;;;;;;;;;;12.00;99.90;;;;;;5030600;28;20690;-88
2022/10/21 06:37:21;;;;;;;;;;;12.00;99.90;;;;;;5031522;28;19956;-86
2022/10/21 06:39:46;;;;;;;;;;;12.10;99.90;;;;;;5032990;28;19913;-85
2022/10/21 06:42:13;;;;;;;;;;;12.10;99.90;;;;;;5028531;28;19968;-86
2022/10/21 06:44:38;;;;;;;;;;;12.00;99.90;;;;;;5005858;28;19917;-86
2022/10/21 06:47:04;;;;;;;;;;;12.10;99.90;;;;;;5029173;28;20332;-85
2022/10/21 06:49:30;;;;;;;;;;;12.20;99.90;;;;;;5027241;28;19920;-86
2022/10/21 06:51:55;;;;;;;;;;;12.20;99.90;;;;;;5024143;28;20007;-87
2022/10/21 06:54:21;;;;;;;;;;;12.20;99.90;;;;;;5025223;28;20078;-88
2022/10/21 06:56:46;;;;;;;;;;;12.30;99.90;;;;;;5032233;28;20364;-86
2022/10/21 06:59:12;;;;;;;;;;;12.30;99.90;;;;;;5014941;28;19921;-86
2022/10/21 07:01:37;;;;;;;;;;;12.30;99.90;;;;;;5002679;28;19948;-88
2022/10/21 07:04:04;;;;;;;;;;;12.30;99.90;;;;;;5019499;28;19921;-85
2022/10/21 07:06:30;;;;;;;;;;;12.30;99.90;;;;;;5029912;28;19920;-87
2022/10/21 07:08:56;;;;;;;;;;;12.30;99.90;;;;;;5031917;28;19913;-87
2022/10/21 07:11:21;;;;;;;;;;;12.10;99.90;;;;;;5027307;28;20027;-86
2022/10/21 07:13:47;;;;;;;;;;;12.10;99.90;;;;;;5020013;28;19983;-87
2022/10/21 07:16:32;;;;;;;;;;;12.10;99.90;;;;;;5032318;28;19913;-89
2022/10/21 07:18:58;;;;;;;;;;;12.10;99.90;;;;;;5002414;28;19917;-85
2022/10/21 07:21:25;;;;;;;;;;;12.10;99.90;;;;;;5025321;28;19917;-85
2022/10/21 07:23:51;;;;;;;;;;;12.10;99.90;;;;;;5011495;28;19917;-85
2022/10/21 07:26:18;;;;;;;;;;;12.10;99.90;;;;;;5025233;28;20794;-88
2022/10/21 07:28:46;;;;;;;;;;;12.20;99.90;;;;;;5041940;28;20003;-86
2022/10/21 07:31:19;;;;;;;;;;;12.20;99.90;;;;;;5027371;28;19982;-87
2022/10/21 07:33:44;;;;;;;;;;;12.00;99.90;;;;;;5026575;28;19914;-88
2022/10/21 07:36:10;;;;;;;;;;;11.90;99.90;;;;;;5032217;28;20013;-88
2022/10/21 07:38:35;;;;;;;;;;;12.00;99.90;;;;;;5032430;28;20313;-88
2022/10/21 07:41:01;;;;;;;;;;;12.00;99.90;;;;;;5032202;28;20256;-88
2022/10/21 07:43:27;;;;;;;;;;;12.00;99.90;;;;;;5030945;28;19913;-87
2022/10/21 07:45:52;;;;;;;;;;;12.10;99.90;;;;;;5030620;28;20012;-88
2022/10/21 07:48:18;;;;;;;;;;;12.20;99.90;;;;;;5003875;28;19921;-89
2022/10/21 07:50:43;;;;;;;;;;;12.30;99.90;;;;;;5025940;28;19917;-85
2022/10/21 07:53:09;;;;;;;;;;;12.30;99.90;;;;;;5032148;28;20735;-89
2022/10/21 07:55:34;;;;;;;;;;;12.40;99.90;;;;;;5016009;28;19913;-86
2022/10/21 07:58:00;;;;;;;;;;;12.30;99.90;;;;;;5032068;28;20523;-86
2022/10/21 08:00:26;;;;;;;;;;;12.40;99.90;;;;;;5031555;28;19996;-88
2022/10/21 08:02:55;;;;;;;;;;;12.40;99.90;;;;;;5017533;28;20007;-89
2022/10/21 08:05:21;;;;;;;;;;;12.50;99.90;;;;;;5031317;28;20048;-86
2022/10/21 08:07:47;;;;;;;;;;;12.60;99.90;;;;;;5015270;28;20000;-85
2022/10/21 08:10:12;;;;;;;;;;;12.60;99.90;;;;;;5028337;28;20111;-86
2022/10/21 08:12:38;;;;;;;;;;;12.70;99.90;;;;;;5028128;28;19924;-88
2022/10/21 08:15:03;;;;;;;;;;;12.70;99.90;;;;;;5014439;28;20050;-88
2022/10/21 08:17:29;;;;;;;;;;;12.70;99.90;;;;;;5012768;28;19913;-89
2022/10/21 08:19:55;;;;;;;;;;;12.70;99.90;;;;;;5014432;28;19939;-86
2022/10/21 08:22:21;;;;;;;;;;;12.80;99.90;;;;;;5029052;28;19932;-88
2022/10/21 08:24:46;;;;;;;;;;;12.90;99.90;;;;;;5003027;28;19921;-86
2022/10/21 08:27:12;;;;;;;;;;;13.00;99.90;;;;;;5032077;28;19947;-85
2022/10/21 08:29:38;;;;;;;;;;;13.00;99.90;;;;;;5034604;28;19963;-88
2022/10/21 08:32:03;;;;;;;;;;;13.10;99.90;;;;;;5024060;28;19917;-85
2022/10/21 08:34:29;;;;;;;;;;;13.30;99.90;;;;;;5031082;28;19917;-84
2022/10/21 08:36:54;;;;;;;;;;;13.60;99.90;;;;;;5034956;28;19921;-86
2022/10/21 08:39:20;;;;;;;;;;;13.90;99.90;;;;;;5017284;28;19924;-84
2022/10/21 08:42:06;;;;;;;;;;;14.10;99.90;;;;;;5030740;28;19917;-85
2022/10/21 08:44:36;;;;;;;;;;;14.20;99.90;;;;;;5034854;28;20004;-85
2022/10/21 08:47:22;;;;;;;;;;;14.20;99.90;;;;;;5028259;28;19920;-84
2022/10/21 08:49:55;;;;;;;;;;;14.30;99.90;;;;;;5009844;28;19921;-85
2022/10/21 08:52:24;;;;;;;;;;;14.40;99.90;;;;;;5016435;28;19921;-84
2022/10/21 08:54:53;;;;;;;;;;;14.60;99.90;;;;;;5017207;28;19910;-83
2022/10/21 08:57:19;;;;;;;;;;;14.70;99.90;;;;;;5034386;28;20003;-84
2022/10/21 08:59:45;;;;;;;;;;;14.80;99.90;;;;;;5016458;28;20383;-84
2022/10/21 09:02:16;;;;;;;;;;;15.10;99.90;;;;;;5033864;28;19928;-83
2022/10/21 09:04:42;;;;;;;;;;;14.90;99.90;;;;;;5019377;28;20281;-83
2022/10/21 09:07:33;;;;;;;;;;;14.90;99.90;;;;;;5033618;28;19924;-83
2022/10/21 09:10:08;;;;;;;;;;;15.00;99.90;;;;;;4991534;28;19960;-83
2022/10/21 09:12:36;;;;;;;;;;;15.50;99.90;;;;;;5032228;28;19917;-82
2022/10/21 09:15:05;;;;;;;;;;;15.70;99.90;;;;;;5027724;28;19983;-83
2022/10/21 09:17:45;;;;;;;;;;;15.70;99.90;;;;;;5027251;28;19928;-82
2022/10/21 09:20:11;;;;;;;;;;;15.40;99.90;;;;;;5026299;28;19967;-83
2022/10/21 09:22:36;;;;;;;;;;;15.40;99.90;;;;;;5015571;28;20353;-83
2022/10/21 09:25:16;;;;;;;;;;;15.20;99.90;;;;;;5015647;28;19925;-83
2022/10/21 09:27:41;;;;;;;;;;;15.00;99.90;;;;;;5007837;28;20025;-83
2022/10/21 09:30:13;;;;;;;;;;;14.80;99.90;;;;;;5011358;28;19999;-83
2022/10/21 09:32:39;;;;;;;;;;;14.90;99.90;;;;;;5023940;28;20376;-83
2022/10/21 09:35:14;;;;;;;;;;;15.00;99.90;;;;;;5033428;28;20269;-83
2022/10/21 09:37:56;;;;;;;;;;;15.20;99.90;;;;;;5033325;28;19913;-83
2022/10/21 09:40:22;;;;;;;;;;;15.20;99.90;;;;;;5003288;28;19917;-83
2022/10/21 09:42:49;;;;;;;;;;;14.90;99.90;;;;;;5031139;28;19913;-84
2022/10/21 09:45:20;;;;;;;;;;;14.80;99.90;;;;;;5032903;28;19921;-83
2022/10/21 09:47:48;;;;;;;;;;;14.60;99.90;;;;;;5033051;28;19917;-84
2022/10/21 09:50:15;;;;;;;;;;;14.50;99.90;;;;;;5033558;28;20415;-84
2022/10/21 09:52:42;;;;;;;;;;;14.40;99.90;;;;;;5028854;28;19966;-84
2022/10/21 09:55:11;;;;;;;;;;;14.40;99.90;;;;;;5020879;28;19956;-85
2022/10/21 09:57:55;;;;;;;;;;;14.50;99.90;;;;;;5028870;28;20004;-85
2022/10/21 10:00:20;;;;;;;;;;;14.70;99.90;;;;;;5028726;28;19917;-84
2022/10/21 10:02:46;;;;;;;;;;;14.70;99.90;;;;;;5033374;28;19924;-85
2022/10/21 10:05:30;;;;;;;;;;;14.70;99.90;;;;;;5033107;28;19936;-85
2022/10/21 10:07:55;;;;;;;;;;;14.80;99.90;;;;;;5019633;28;20523;-84
2022/10/21 10:10:29;;;;;;;;;;;14.80;99.90;;;;;;5005256;28;19924;-84
2022/10/21 10:12:56;;;;;;;;;;;14.90;99.90;;;;;;5028473;28;19917;-83
2022/10/21 10:15:24;;;;;;;;;;;14.90;99.90;;;;;;5031062;28;19913;-83
2022/10/21 10:17:55;;;;;;;;;;;14.80;99.90;;;;;;5033411;28;19949;-85
2022/10/21 10:20:20;;;;;;;;;;;14.90;99.90;;;;;;5029502;28;20415;-84
2022/10/21 10:22:58;;;;;;;;;;;14.80;99.90;;;;;;5025028;28;20004;-84
2022/10/21 10:25:27;;;;;;;;;;;14.90;99.90;;;;;;5032395;28;19917;-84
2022/10/21 10:27:55;;;;;;;;;;;14.90;99.90;;;;;;5028434;28;20044;-84
2022/10/21 10:30:22;;;;;;;;;;;14.90;99.90;;;;;;5021467;28;19921;-84
2022/10/21 10:32:49;;;;;;;;;;;14.90;99.90;;;;;;5032602;28;19944;-83
2022/10/21 10:35:24;;;;;;;;;;;15.00;99.90;;;;;;5031043;28;20008;-82
2022/10/21 10:37:51;;;;;;;;;;;15.10;99.90;;;;;;5021511;28;19912;-83
2022/10/21 10:40:21;;;;;;;;;;;15.20;99.90;;;;;;5032221;28;20012;-82
2022/10/21 10:42:47;;;;;;;;;;;15.10;99.90;;;;;;5027759;28;19952;-82
2022/10/21 10:45:18;;;;;;;;;;;14.80;99.90;;;;;;5025058;28;19964;-82
2022/10/21 10:47:49;;;;;;;;;;;14.80;99.90;;;;;;5008666;28;19921;-84
2022/10/21 10:50:33;;;;;;;;;;;14.70;99.90;;;;;;5024876;28;20011;-84
2022/10/21 10:53:20;;;;;;;;;;;14.50;99.90;;;;;;5022272;28;20032;-85
2022/10/21 10:55:48;;;;;;;;;;;14.30;99.90;;;;;;5029838;28;20257;-85
2022/10/21 10:58:13;;;;;;;;;;;14.30;99.90;;;;;;5031899;28;20013;-85
2022/10/21 11:00:41;;;;;;;;;;;14.20;99.90;;;;;;5035057;28;20730;-87
2022/10/21 11:03:10;;;;;;;;;;;14.10;99.90;;;;;;5029816;28;19925;-86
2022/10/21 11:05:41;;;;;;;;;;;14.00;99.90;;;;;;5024501;28;19979;-86
2022/10/21 11:08:22;;;;;;;;;;;14.00;99.90;;;;;;5021972;28;19968;-86
2022/10/21 11:11:02;;;;;;;;;;;14.00;99.90;;;;;;5028146;28;19917;-87
2022/10/21 11:13:28;;;;;;;;;;;13.90;99.90;;;;;;5032736;28;19914;-88
2022/10/21 11:16:02;;;;;;;;;;;13.90;99.90;;;;;;5011140;28;19917;-88
2022/10/21 11:18:36;;;;;;;;;;;13.80;99.90;;;;;;4984283;28;20741;-88
2022/10/21 11:21:09;;;;;;;;;;;13.80;99.90;;;;;;4970521;28;19963;-87
2022/10/21 11:23:41;;;;;;;;;;;13.70;99.90;;;;;;5009770;28;20296;-87
2022/10/21 11:26:09;;;;;;;;;;;13.80;99.90;;;;;;4992887;28;19925;-87
2022/10/21 11:28:46;;;;;;;;;;;13.70;99.90;;;;;;5011115;28;19909;-87
2022/10/21 11:31:35;;;;;;;;;;;13.60;99.90;;;;;;5012378;28;20328;-87
2022/10/21 11:34:09;;;;;;;;;;;13.70;99.90;;;;;;4993807;28;19917;-88
2022/10/21 11:36:39;;;;;;;;;;;13.70;99.90;;;;;;4991196;28;19913;-88
2022/10/21 11:39:18;;;;;;;;;;;13.60;99.90;;;;;;5012748;28;19914;-88
2022/10/21 11:41:47;;;;;;;;;;;13.60;99.90;;;;;;4991586;28;19918;-86
2022/10/21 11:44:37;;;;;;;;;;;13.60;99.90;;;;;;4994714;28;20011;-87
2022/10/21 11:47:10;;;;;;;;;;;13.60;99.90;;;;;;5004442;28;20264;-86
2022/10/21 11:49:48;;;;;;;;;;;13.50;99.90;;;;;;5011199;28;20361;-88
2022/10/21 11:52:14;;;;;;;;;;;13.60;99.90;;;;;;5000294;28;19914;-88
2022/10/21 11:54:42;;;;;;;;;;;13.70;99.90;;;;;;5002232;28;19917;-88
2022/10/21 11:57:11;;;;;;;;;;;13.70;99.90;;;;;;5010667;28;19956;-87
2022/10/21 11:59:47;;;;;;;;;;;13.80;99.90;;;;;;5004583;28;19926;-85
2022/10/21 12:02:19;;;;;;;;;;;13.90;99.90;;;;;;4999996;28;19921;-84
2022/10/21 12:04:48;;;;;;;;;;;13.90;99.90;;;;;;5006512;28;20208;-86
2022/10/21 12:07:33;;;;;;;;;;;14.00;99.90;;;;;;5011211;28;19913;-85
2022/10/21 12:10:02;;;;;;;;;;;14.00;99.90;;;;;;4991029;28;19914;-86
2022/10/21 12:12:31;;;;;;;;;;;14.00;99.90;;;;;;5012083;28;19914;-85
2022/10/21 12:15:01;;;;;;;;;;;14.00;99.90;;;;;;5008092;28;19914;-86
2022/10/21 12:17:28;;;;;;;;;;;14.00;99.90;;;;;;5011435;28;19917;-86
2022/10/21 12:19:55;;;;;;;;;;;14.10;99.90;;;;;;5005074;28;20407;-85
2022/10/21 12:22:21;;;;;;;;;;;14.20;99.90;;;;;;5031372;28;19924;-85
2022/10/21 12:25:07;;;;;;;;;;;14.30;99.90;;;;;;5029946;28;19921;-85
2022/10/21 12:27:33;;;;;;;;;;;14.30;99.90;;;;;;5016429;28;20055;-87
2022/10/21 12:30:05;;;;;;;;;;;14.30;99.90;;;;;;5031538;28;20059;-86
2022/10/21 12:32:57;;;;;;;;;;;14.20;99.90;;;;;;5028792;28;20396;-87
2022/10/21 12:35:27;;;;;;;;;;;14.20;99.90;;;;;;4976434;28;19913;-85
2022/10/21 12:37:52;;;;;;;;;;;14.40;99.90;;;;;;5029962;28;19922;-85
2022/10/21 12:40:24;;;;;;;;;;;14.50;99.90;;;;;;4996986;28;19914;-84
2022/10/21 12:42:57;;;;;;;;;;;14.60;99.90;;;;;;5004352;28;19920;-84
2022/10/21 12:45:30;;;;;;;;;;;14.60;99.90;;;;;;5030382;28;19925;-84
2022/10/21 12:47:57;;;;;;;;;;;14.80;99.90;;;;;;5030605;28;19925;-84
2022/10/21 12:50:29;;;;;;;;;;;14.70;99.90;;;;;;5016733;28;19971;-84
2022/10/21 12:53:05;;;;;;;;;;;14.70;99.90;;;;;;5030741;28;20023;-85
2022/10/21 12:55:38;;;;;;;;;;;14.90;99.90;;;;;;5030638;28;19924;-84
2022/10/21 12:58:05;;;;;;;;;;;14.90;99.90;;;;;;5025392;28;19924;-85
2022/10/21 13:00:31;;;;;;;;;;;14.80;99.90;;;;;;5008499;28;19924;-84
2022/10/21 13:03:02;;;;;;;;;;;14.70;99.90;;;;;;5010472;28;20384;-84
2022/10/21 13:05:36;;;;;;;;;;;14.70;99.90;;;;;;5029300;28;19921;-84
2022/10/21 13:08:14;;;;;;;;;;;14.60;99.90;;;;;;5026986;28;20040;-85
2022/10/21 13:10:39;;;;;;;;;;;14.50;99.90;;;;;;5030052;28;19913;-84
2022/10/21 13:13:26;;;;;;;;;;;14.50;99.90;;;;;;5032006;28;19920;-85
2022/10/21 13:15:51;;;;;;;;;;;14.50;99.90;;;;;;5033914;28;19917;-84
2022/10/21 13:18:37;;;;;;;;;;;14.50;99.90;;;;;;5033341;28;19954;-84
2022/10/21 13:21:02;;;;;;;;;;;14.50;99.90;;;;;;5013798;28;19917;-83
2022/10/21 13:23:30;;;;;;;;;;;14.60;99.90;;;;;;5030974;28;19921;-84
2022/10/21 13:26:13;;;;;;;;;;;14.50;99.90;;;;;;5032566;28;19921;-84
2022/10/21 13:28:38;;;;;;;;;;;14.50;99.90;;;;;;5028952;28;19917;-84
2022/10/21 13:31:04;;;;;;;;;;;14.40;99.90;;;;;;5033197;28;19917;-85
2022/10/21 13:33:31;;;;;;;;;;;14.40;99.90;;;;;;5028503;28;20008;-84
2022/10/21 13:36:03;;;;;;;;;;;14.40;99.90;;;;;;5015101;28;19952;-85
2022/10/21 13:38:36;;;;;;;;;;;14.40;99.90;;;;;;5020882;28;19920;-85
2022/10/21 13:41:03;;;;;;;;;;;14.50;99.90;;;;;;5034750;28;19917;-87
2022/10/21 13:43:34;;;;;;;;;;;14.50;99.90;;;;;;5032970;28;19917;-86
2022/10/21 13:46:10;;;;;;;;;;;14.60;99.90;;;;;;5030607;28;19932;-86
2022/10/21 13:48:40;;;;;;;;;;;14.80;99.90;;;;;;5013335;28;19967;-86
2022/10/21 13:51:26;;;;;;;;;;;15.10;99.90;;;;;;5034331;28;20391;-83
2022/10/21 13:53:53;;;;;;;;;;;15.40;99.90;;;;;;5033327;28;19917;-83
2022/10/21 13:56:20;;;;;;;;;;;15.30;99.90;;;;;;5032198;28;19920;-83
2022/10/21 13:58:46;;;;;;;;;;;15.20;99.90;;;;;;5026847;28;19972;-84
2022/10/21 14:01:17;;;;;;;;;;;15.30;99.90;;;;;;5025596;28;19921;-84
2022/10/21 14:03:43;;;;;;;;;;;15.20;99.90;;;;;;5028051;28;19952;-84
2022/10/21 14:06:09;;;;;;;;;;;15.00;99.90;;;;;;5012494;28;19986;-84
2022/10/21 14:08:44;;;;;;;;;;;15.00;99.90;;;;;;5020685;28;19917;-83
2022/10/21 14:11:15;;;;;;;;;;;15.00;99.90;;;;;;5033185;28;20007;-83
2022/10/21 14:13:41;;;;;;;;;;;15.00;99.90;;;;;;5015909;28;19971;-84
2022/10/21 14:16:08;;;;;;;;;;;15.00;99.90;;;;;;5028391;28;19921;-83
2022/10/21 14:18:38;;;;;;;;;;;14.80;99.90;;;;;;5031810;28;19921;-84
2022/10/21 14:21:05;;;;;;;;;;;14.80;99.90;;;;;;5029055;28;19967;-84
2022/10/21 14:23:30;;;;;;;;;;;14.70;99.90;;;;;;5019593;28;19965;-84
2022/10/21 14:26:06;;;;;;;;;;;14.70;99.90;;;;;;5023698;28;19925;-85